Time;durP1;ratioP1;P1;durP2;ratioP2;P2;SDS_P1;SDS_P2;PMS_P1;PMS_P2;Temp;Humidity;BMP_temperature;BMP_pressure;BME280_temperature;BME280_humidity;BME280_pressure;Samples;Min_cycle;Max_cycle;Signal;HPM_P1;HPM_P2
2024/01/22 00:01:26;;;;;;;11.35;6.28;;;7.40;99.90;;;;;;5071323;28;20400;-91
2024/01/22 00:03:51;;;;;;;9.23;5.63;;;7.30;99.90;;;;;;5071622;28;20402;-90
2024/01/22 00:06:17;;;;;;;9.83;6.37;;;7.50;99.90;;;;;;5071644;28;20402;-89
2024/01/22 00:08:42;;;;;;;9.48;5.75;;;7.40;99.90;;;;;;5071202;28;20394;-90
2024/01/22 00:11:08;;;;;;;11.40;6.25;;;7.40;99.90;;;;;;5071701;28;20489;-92
2024/01/22 00:13:34;;;;;;;9.23;5.70;;;7.60;99.90;;;;;;5070924;28;20402;-91
2024/01/22 00:15:59;;;;;;;8.25;5.72;;;7.40;99.90;;;;;;5088199;28;20398;-92
2024/01/22 00:18:25;;;;;;;10.30;5.70;;;7.50;99.90;;;;;;5071229;28;20398;-91
2024/01/22 00:20:51;;;;;;;8.77;5.13;;;7.50;99.90;;;;;;5071536;28;20441;-90
2024/01/22 00:23:16;;;;;;;8.13;5.30;;;7.60;99.90;;;;;;5070424;28;20489;-89
2024/01/22 00:25:42;;;;;;;8.45;5.55;;;7.60;99.90;;;;;;5087800;28;20422;-92
2024/01/22 00:28:08;;;;;;;9.47;5.17;;;7.60;99.90;;;;;;5070790;28;20406;-89
2024/01/22 00:30:34;;;;;;;7.22;4.80;;;7.70;99.90;;;;;;5070763;28;20411;-91
2024/01/22 00:32:59;;;;;;;9.03;5.17;;;7.80;99.90;;;;;;5071276;28;20455;-91
2024/01/22 00:35:25;;;;;;;8.93;4.93;;;8.20;99.90;;;;;;5070595;28;20487;-92
2024/01/22 00:37:51;;;;;;;7.95;5.30;;;7.90;99.90;;;;;;5070740;28;20405;-93
2024/01/22 00:40:17;;;;;;;7.57;4.53;;;7.80;99.90;;;;;;5070847;28;20398;-91
2024/01/22 00:42:43;;;;;;;6.47;4.03;;;7.80;99.90;;;;;;5070992;28;20402;-89
2024/01/22 00:45:09;;;;;;;6.68;4.22;;;7.70;99.90;;;;;;5070271;28;20504;-90
2024/01/22 00:47:36;;;;;;;9.85;4.80;;;7.90;99.90;;;;;;5070424;28;20482;-92
2024/01/22 00:50:01;;;;;;;7.30;4.70;;;8.00;99.90;;;;;;5070634;28;20402;-89
2024/01/22 00:52:27;;;;;;;8.40;4.90;;;8.00;99.90;;;;;;5070175;28;20406;-89
2024/01/22 00:54:52;;;;;;;8.20;5.30;;;7.90;99.90;;;;;;5069978;28;20555;-90
2024/01/22 00:57:19;;;;;;;9.10;5.10;;;8.00;99.90;;;;;;5069869;28;20406;-92
2024/01/22 00:59:45;;;;;;;7.60;4.70;;;8.00;99.90;;;;;;5070611;28;20406;-89
2024/01/22 01:02:10;;;;;;;8.80;5.35;;;8.00;99.90;;;;;;5087635;28;20925;-92
2024/01/22 01:04:36;;;;;;;10.17;5.53;;;7.90;99.90;;;;;;5088511;28;20886;-90
2024/01/22 01:07:02;;;;;;;9.53;5.40;;;8.00;99.90;;;;;;5069312;28;20410;-90
2024/01/22 01:09:27;;;;;;;12.25;7.43;;;7.90;99.90;;;;;;5070136;28;20402;-91
2024/01/22 01:11:53;;;;;;;10.13;5.80;;;8.20;99.90;;;;;;5070110;28;20398;-90
2024/01/22 01:14:19;;;;;;;11.10;7.47;;;7.90;99.90;;;;;;5070404;28;20459;-89
2024/01/22 01:16:44;;;;;;;12.98;7.85;;;7.80;99.90;;;;;;5070158;28;20501;-87
2024/01/22 01:19:10;;;;;;;11.63;7.35;;;7.80;99.90;;;;;;5069803;28;20405;-88
2024/01/22 01:21:39;;;;;;;11.83;7.10;;;7.70;99.90;;;;;;5070398;28;20412;-91
2024/01/22 01:24:05;;;;;;;12.55;7.53;;;7.90;99.90;;;;;;5068973;28;20422;-91
2024/01/22 01:26:30;;;;;;;12.35;8.38;;;7.80;99.90;;;;;;5069896;28;20428;-89
2024/01/22 01:28:57;;;;;;;11.45;6.95;;;7.90;99.90;;;;;;5070392;28;20405;-90
2024/01/22 01:31:22;;;;;;;10.02;6.55;;;8.10;99.90;;;;;;5086930;28;20409;-92
2024/01/22 01:33:48;;;;;;;8.85;6.32;;;7.70;99.90;;;;;;5070057;28;20409;-92
2024/01/22 01:36:14;;;;;;;10.55;6.68;;;8.30;99.90;;;;;;5069996;28;20505;-92
2024/01/22 01:38:39;;;;;;;9.77;6.90;;;7.80;99.90;;;;;;5069634;28;20414;-87
2024/01/22 01:41:05;;;;;;;10.18;5.85;;;8.00;99.90;;;;;;5069691;28;20468;-94
2024/01/22 01:43:31;;;;;;;12.32;7.63;;;8.00;99.90;;;;;;5086531;28;20386;-90
2024/01/22 01:45:56;;;;;;;10.97;7.33;;;8.30;99.90;;;;;;5069272;28;20897;-92
2024/01/22 01:48:22;;;;;;;9.57;5.70;;;8.00;99.90;;;;;;5069554;28;20402;-87
2024/01/22 01:50:48;;;;;;;12.88;7.57;;;8.10;99.90;;;;;;5085542;28;20829;-90
2024/01/22 01:53:15;;;;;;;12.60;8.50;;;8.20;99.90;;;;;;5069290;28;20911;-91
2024/01/22 01:55:43;;;;;;;12.23;7.63;;;7.90;99.90;;;;;;5086881;28;20409;-90
2024/01/22 01:58:09;;;;;;;12.77;8.17;;;8.10;99.90;;;;;;5069230;28;20397;-92
2024/01/22 02:00:35;;;;;;;12.85;8.40;;;8.10;99.90;;;;;;5069256;28;20504;-92
2024/01/22 02:03:00;;;;;;;13.18;9.02;;;8.10;99.90;;;;;;5069731;28;20422;-90
2024/01/22 02:05:26;;;;;;;12.13;7.83;;;8.10;99.90;;;;;;5069299;28;20428;-91
2024/01/22 02:07:52;;;;;;;12.13;9.00;;;8.30;99.90;;;;;;5069865;28;20406;-90
2024/01/22 02:10:17;;;;;;;13.57;8.15;;;8.20;99.90;;;;;;5069940;28;20455;-91
2024/01/22 02:12:43;;;;;;;12.40;7.65;;;8.00;99.90;;;;;;5069189;28;20477;-89
2024/01/22 02:15:09;;;;;;;11.30;8.00;;;8.60;99.90;;;;;;5086273;28;20469;-89
2024/01/22 02:17:35;;;;;;;13.48;9.75;;;8.50;99.90;;;;;;5086503;28;20531;-93
2024/01/22 02:20:00;;;;;;;13.07;8.32;;;8.30;99.90;;;;;;5073421;28;20401;-89
2024/01/22 02:22:26;;;;;;;9.83;7.27;;;8.30;99.90;;;;;;5072829;28;20433;-88
2024/01/22 02:24:55;;;;;;;11.57;7.40;;;8.40;99.90;;;;;;5072323;28;20430;-92
2024/01/22 02:27:20;;;;;;;10.55;7.25;;;8.60;99.90;;;;;;5072848;28;20507;-88
2024/01/22 02:29:46;;;;;;;11.50;8.27;;;8.40;99.90;;;;;;5090291;28;20438;-90
2024/01/22 02:32:12;;;;;;;11.83;8.13;;;8.50;99.90;;;;;;5072823;28;20402;-87
2024/01/22 02:34:37;;;;;;;11.17;7.33;;;8.50;99.90;;;;;;5073172;28;20808;-88
2024/01/22 02:37:03;;;;;;;9.68;7.68;;;8.60;99.90;;;;;;5072627;28;20524;-86
2024/01/22 02:39:29;;;;;;;11.32;7.93;;;8.50;99.90;;;;;;5072772;28;20738;-92
2024/01/22 02:41:59;;;;;;;12.77;7.28;;;8.60;99.90;;;;;;5072665;28;20398;-90
2024/01/22 02:44:24;;;;;;;10.80;7.30;;;8.60;99.90;;;;;;5072573;28;20498;-89
2024/01/22 02:46:50;;;;;;;13.57;7.50;;;8.60;99.90;;;;;;5073626;28;20792;-89
2024/01/22 02:49:16;;;;;;;11.23;6.63;;;8.50;99.90;;;;;;5072884;28;20398;-92
2024/01/22 02:51:45;;;;;;;8.80;5.57;;;8.80;99.90;;;;;;5073042;28;20826;-91
2024/01/22 02:54:12;;;;;;;12.35;7.20;;;8.70;99.90;;;;;;5072547;28;20454;-88
2024/01/22 02:56:39;;;;;;;11.95;7.05;;;8.70;99.90;;;;;;5072967;28;20489;-93
2024/01/22 02:59:06;;;;;;;14.55;8.20;;;8.80;99.90;;;;;;5055780;28;20489;-89
2024/01/22 03:01:32;;;;;;;10.50;7.47;;;8.90;99.90;;;;;;5072107;28;20775;-89
2024/01/22 03:03:57;;;;;;;11.33;6.57;;;8.80;99.90;;;;;;5072614;28;20398;-94
2024/01/22 03:06:23;;;;;;;10.10;7.60;;;8.80;99.90;;;;;;5072277;28;20421;-94
2024/01/22 03:08:51;;;;;;;10.98;7.90;;;8.90;99.90;;;;;;5072429;28;20394;-90
2024/01/22 03:11:17;;;;;;;12.23;6.83;;;8.80;99.90;;;;;;5072740;28;20406;-94
2024/01/22 03:13:43;;;;;;;10.50;6.90;;;8.80;99.90;;;;;;5072536;28;20471;-91
2024/01/22 03:16:09;;;;;;;12.63;7.15;;;8.80;99.90;;;;;;5072266;28;20821;-90
2024/01/22 03:18:35;;;;;;;12.35;7.53;;;9.20;99.90;;;;;;5088962;28;20414;-88
2024/01/22 03:21:07;;;;;;;11.37;7.50;;;8.80;99.90;;;;;;5088345;28;20760;-90
2024/01/22 03:23:33;;;;;;;12.43;7.47;;;8.90;99.90;;;;;;5071028;28;20493;-87
2024/01/22 03:25:58;;;;;;;10.77;7.18;;;8.80;99.90;;;;;;5071613;28;20517;-87
2024/01/22 03:28:24;;;;;;;12.20;8.40;;;8.80;99.90;;;;;;5070711;28;20783;-86
2024/01/22 03:30:50;;;;;;;10.80;7.30;;;8.80;99.90;;;;;;5087973;28;20402;-92
2024/01/22 03:33:17;;;;;;;9.65;6.50;;;8.90;99.90;;;;;;5072115;28;20851;-91
2024/01/22 03:35:43;;;;;;;9.02;7.10;;;8.80;99.90;;;;;;5071316;28;20402;-89
2024/01/22 03:38:08;;;;;;;11.90;7.35;;;8.90;99.90;;;;;;5071519;28;20417;-92
2024/01/22 03:40:34;;;;;;;12.98;7.50;;;9.20;99.90;;;;;;5071745;28;20405;-87
2024/01/22 03:43:00;;;;;;;10.20;7.00;;;8.90;99.90;;;;;;5070886;28;20422;-91
2024/01/22 03:45:25;;;;;;;10.95;6.85;;;9.10;99.90;;;;;;5070369;28;20483;-91
2024/01/22 03:47:51;;;;;;;10.05;6.70;;;9.00;99.90;;;;;;5071527;28;21014;-87
2024/01/22 03:50:17;;;;;;;8.80;6.97;;;9.10;99.90;;;;;;5071446;28;20497;-88
2024/01/22 03:52:42;;;;;;;8.70;5.32;;;9.00;99.90;;;;;;5088773;28;20418;-93
2024/01/22 03:55:09;;;;;;;8.02;5.55;;;9.10;99.90;;;;;;5071406;28;20429;-89
2024/01/22 03:57:35;;;;;;;9.40;6.32;;;9.10;99.90;;;;;;5087428;28;20398;-89
2024/01/22 04:00:01;;;;;;;7.00;5.00;;;9.30;99.90;;;;;;5070946;28;20402;-93
2024/01/22 04:02:27;;;;;;;7.68;4.72;;;9.30;99.90;;;;;;5071204;28;20386;-91
2024/01/22 04:04:53;;;;;;;6.40;4.60;;;9.40;99.90;;;;;;5071402;28;20429;-87
2024/01/22 04:07:19;;;;;;;7.47;5.30;;;9.30;99.90;;;;;;5071085;28;20420;-91
2024/01/22 04:09:45;;;;;;;6.00;4.30;;;9.40;99.90;;;;;;5071578;28;20418;-94
2024/01/22 04:12:11;;;;;;;4.93;3.70;;;9.40;99.90;;;;;;5088229;28;20984;-88
2024/01/22 04:14:36;;;;;;;6.25;3.53;;;9.60;99.90;;;;;;5071291;28;20406;-90
2024/01/22 04:17:02;;;;;;;4.78;3.30;;;10.00;99.90;;;;;;5070738;28;20777;-93
2024/01/22 04:19:28;;;;;;;5.07;3.80;;;9.60;99.90;;;;;;5070855;28;21131;-93
2024/01/22 04:21:53;;;;;;;3.77;3.37;;;9.80;99.90;;;;;;5070967;28;20409;-91
2024/01/22 04:24:19;;;;;;;5.80;3.70;;;9.70;99.90;;;;;;5069576;28;20426;-87
2024/01/22 04:26:45;;;;;;;5.23;3.40;;;9.70;99.90;;;;;;5070400;28;20438;-90
2024/01/22 04:29:13;;;;;;;5.22;2.95;;;9.70;99.90;;;;;;5087381;28;20405;-90
2024/01/22 04:31:39;;;;;;;5.05;3.70;;;9.80;99.90;;;;;;5069965;28;20915;-86
2024/01/22 04:34:04;;;;;;;4.68;2.90;;;9.90;99.90;;;;;;5087170;28;20410;-89
2024/01/22 04:36:30;;;;;;;3.50;2.95;;;9.90;99.90;;;;;;5070143;28;21008;-87
2024/01/22 04:38:56;;;;;;;3.93;1.53;;;9.80;99.90;;;;;;5070426;28;20402;-90
2024/01/22 04:41:22;;;;;;;5.20;3.08;;;10.10;99.90;;;;;;5073364;28;20400;-90
2024/01/22 04:43:47;;;;;;;5.07;3.43;;;10.00;99.90;;;;;;5091737;28;20916;-95
2024/01/22 04:46:13;;;;;;;3.25;1.70;;;10.10;99.90;;;;;;5090849;28;20396;-92
2024/01/22 04:48:39;;;;;;;3.17;1.57;;;10.00;99.90;;;;;;5091856;28;20401;-91
2024/01/22 04:51:04;;;;;;;4.60;2.17;;;10.00;99.90;;;;;;5091809;28;20415;-91
2024/01/22 04:53:30;;;;;;;2.72;2.30;;;10.20;99.90;;;;;;5091057;28;20400;-89
2024/01/22 04:55:56;;;;;;;4.00;2.35;;;10.10;99.90;;;;;;5076279;28;20469;-92
2024/01/22 04:58:21;;;;;;;2.60;1.77;;;10.10;99.90;;;;;;5071225;28;20402;-91
2024/01/22 05:00:50;;;;;;;3.45;2.45;;;10.10;99.90;;;;;;5071034;28;20414;-89
2024/01/22 05:03:15;;;;;;;2.35;1.75;;;10.20;99.90;;;;;;5070894;28;20478;-91
2024/01/22 05:05:41;;;;;;;3.00;2.00;;;10.20;99.90;;;;;;5070092;28;20456;-92
2024/01/22 05:08:07;;;;;;;3.13;2.23;;;10.10;99.90;;;;;;5070153;28;20395;-89
2024/01/22 05:10:32;;;;;;;3.70;3.10;;;10.20;99.90;;;;;;5087377;28;20471;-93
2024/01/22 05:12:58;;;;;;;3.27;2.30;;;10.20;99.90;;;;;;5087815;28;20781;-90
2024/01/22 05:15:23;;;;;;;4.03;2.00;;;10.10;99.90;;;;;;5071165;28;20398;-87
2024/01/22 05:17:49;;;;;;;6.05;2.90;;;10.30;99.90;;;;;;5087496;28;20961;-87
2024/01/22 05:20:15;;;;;;;6.60;3.10;;;10.40;99.90;;;;;;5069794;28;20406;-87
2024/01/22 05:22:40;;;;;;;4.28;3.08;;;10.10;99.90;;;;;;5086914;28;20897;-88
2024/01/22 05:25:08;;;;;;;3.95;2.70;;;10.10;99.90;;;;;;5086506;28;20437;-89
2024/01/22 05:27:33;;;;;;;3.42;2.17;;;10.20;99.90;;;;;;5070960;28;20402;-92
2024/01/22 05:30:02;;;;;;;2.70;1.60;;;10.10;99.90;;;;;;5069826;28;20412;-92
2024/01/22 05:32:30;;;;;;;4.25;2.25;;;10.20;99.90;;;;;;5070193;28;20464;-91
2024/01/22 05:34:55;;;;;;;3.33;2.50;;;10.20;99.90;;;;;;5068607;28;20402;-87
2024/01/22 05:37:21;;;;;;;2.40;1.60;;;10.30;99.90;;;;;;5086644;28;20410;-91
2024/01/22 05:39:47;;;;;;;3.40;2.08;;;10.20;99.90;;;;;;5086100;28;20459;-89
2024/01/22 05:42:12;;;;;;;2.72;1.02;;;10.20;99.90;;;;;;5068916;28;20491;-89
2024/01/22 05:44:38;;;;;;;2.85;1.40;;;10.10;99.90;;;;;;5069453;28;20809;-87
2024/01/22 05:47:04;;;;;;;2.97;1.30;;;10.30;99.90;;;;;;5086405;28;20436;-89
2024/01/22 05:49:29;;;;;;;3.50;1.13;;;10.20;99.90;;;;;;5085741;28;20961;-92
2024/01/22 05:51:55;;;;;;;2.57;1.10;;;10.20;99.90;;;;;;5069212;28;20406;-92
2024/01/22 05:54:21;;;;;;;6.70;1.80;;;10.20;99.90;;;;;;5074524;28;20410;-86
2024/01/22 05:56:46;;;;;;;4.38;1.48;;;10.20;99.90;;;;;;5076016;28;20402;-93
2024/01/22 05:59:12;;;;;;;2.80;1.00;;;10.20;99.90;;;;;;5076073;28;20464;-93
2024/01/22 06:01:38;;;;;;;4.63;1.63;;;10.00;99.90;;;;;;5075742;28;20406;-86
2024/01/22 06:04:04;;;;;;;3.35;1.70;;;10.00;99.90;;;;;;5093302;28;20406;-90
2024/01/22 06:06:30;;;;;;;4.90;2.30;;;10.10;99.90;;;;;;5076303;28;20398;-91
2024/01/22 06:08:56;;;;;;;5.03;1.90;;;10.00;99.90;;;;;;5075877;28;20420;-91
2024/01/22 06:11:22;;;;;;;5.03;2.53;;;10.20;99.90;;;;;;5092054;28;20977;-91
2024/01/22 06:13:50;;;;;;;5.20;2.30;;;9.80;99.90;;;;;;5073931;28;20410;-89
2024/01/22 06:16:16;;;;;;;5.67;2.47;;;9.80;99.90;;;;;;5076363;28;20472;-94
2024/01/22 06:18:45;;;;;;;5.55;2.30;;;9.80;99.90;;;;;;5075972;28;20402;-90
2024/01/22 06:21:13;;;;;;;6.93;2.63;;;9.70;99.90;;;;;;5074443;28;20838;-86
2024/01/22 06:23:38;;;;;;;7.07;3.80;;;9.70;99.90;;;;;;5073798;28;20917;-90
2024/01/22 06:26:05;;;;;;;7.67;2.53;;;9.80;99.90;;;;;;5074032;28;20475;-89
2024/01/22 06:28:31;;;;;;;10.82;4.00;;;9.60;99.90;;;;;;5074716;28;20632;-90
2024/01/22 06:30:57;;;;;;;11.65;4.03;;;9.70;99.90;;;;;;5073145;28;20466;-88
2024/01/22 06:33:24;;;;;;;10.88;3.00;;;9.70;99.90;;;;;;5074906;28;20436;-88
2024/01/22 06:35:50;;;;;;;8.45;3.45;;;9.70;99.90;;;;;;5073927;28;20402;-92
2024/01/22 06:38:19;;;;;;;10.63;3.73;;;9.70;99.90;;;;;;5075356;28;21276;-91
2024/01/22 06:40:45;;;;;;;14.48;4.55;;;9.70;99.90;;;;;;5072078;28;20447;-89
2024/01/22 06:43:11;;;;;;;11.60;3.67;;;9.70;99.90;;;;;;5073624;28;20955;-90
2024/01/22 06:45:38;;;;;;;12.93;3.80;;;9.60;99.90;;;;;;5074983;28;20505;-89
2024/01/22 06:48:04;;;;;;;14.07;3.50;;;9.60;99.90;;;;;;5091569;28;20398;-88
2024/01/22 06:50:30;;;;;;;15.20;3.63;;;9.40;99.90;;;;;;5074752;28;20405;-87
2024/01/22 06:52:56;;;;;;;14.77;4.07;;;9.50;99.90;;;;;;5075234;28;20400;-89
2024/01/22 06:55:23;;;;;;;15.77;3.90;;;9.50;99.90;;;;;;5074629;28;20418;-89
2024/01/22 06:57:52;;;;;;;14.98;3.40;;;9.50;99.90;;;;;;5091161;28;20425;-93
2024/01/22 07:00:19;;;;;;;16.80;3.67;;;9.40;99.90;;;;;;5075192;28;20398;-89
2024/01/22 07:02:45;;;;;;;22.92;3.97;;;9.40;99.90;;;;;;5075549;28;20490;-90
2024/01/22 07:05:11;;;;;;;21.70;4.13;;;9.40;99.90;;;;;;5071879;28;20430;-88
2024/01/22 07:07:37;;;;;;;17.40;3.92;;;9.40;99.90;;;;;;5071267;28;20445;-87
2024/01/22 07:10:10;;;;;;;18.40;4.00;;;9.30;99.90;;;;;;5087389;28;20410;-88
2024/01/22 07:12:36;;;;;;;20.83;4.20;;;9.40;99.90;;;;;;5071701;28;20418;-88
2024/01/22 07:15:02;;;;;;;22.88;4.22;;;9.40;99.90;;;;;;5068658;28;20828;-89
2024/01/22 07:17:30;;;;;;;29.75;5.07;;;9.50;99.90;;;;;;5070309;28;20437;-88
2024/01/22 07:19:56;;;;;;;32.83;5.65;;;9.40;99.90;;;;;;5071478;28;20477;-94
2024/01/22 07:22:22;;;;;;;37.53;6.07;;;9.50;99.90;;;;;;5052736;28;20410;-90
2024/01/22 07:24:48;;;;;;;45.67;6.80;;;9.70;99.90;;;;;;5068079;28;20431;-88
2024/01/22 07:27:13;;;;;;;39.67;6.97;;;9.70;99.90;;;;;;5068614;28;20910;-87
2024/01/22 07:29:39;;;;;;;49.10;7.13;;;9.70;99.90;;;;;;5051598;28;20403;-88
2024/01/22 07:32:05;;;;;;;48.47;6.68;;;10.00;99.90;;;;;;5052592;28;20444;-95
2024/01/22 07:34:32;;;;;;;57.75;7.75;;;9.80;99.90;;;;;;5069345;28;20787;-88
2024/01/22 07:36:58;;;;;;;56.25;8.82;;;9.90;99.90;;;;;;5052778;28;20808;-90
2024/01/22 07:39:23;;;;;;;58.70;8.32;;;9.70;99.90;;;;;;5051858;28;20416;-91
2024/01/22 07:41:49;;;;;;;50.27;7.47;;;9.70;99.90;;;;;;5068860;28;20403;-92
2024/01/22 07:44:15;;;;;;;59.58;8.25;;;9.60;99.90;;;;;;5051970;28;20428;-90
2024/01/22 07:46:40;;;;;;;58.63;8.13;;;9.50;99.90;;;;;;5053099;28;20416;-92
2024/01/22 07:49:07;;;;;;;52.47;7.73;;;9.50;99.90;;;;;;5052090;28;20420;-92
2024/01/22 07:51:39;;;;;;;56.33;7.40;;;9.50;99.90;;;;;;5073304;28;20449;-94
2024/01/22 07:54:05;;;;;;;41.13;5.80;;;9.50;99.90;;;;;;5073430;28;20548;-91
2024/01/22 07:56:31;;;;;;;28.55;3.90;;;9.40;99.90;;;;;;5072506;28;20417;-94
2024/01/22 07:58:57;;;;;;;36.45;5.10;;;9.60;99.90;;;;;;5072397;28;20410;-95
2024/01/22 08:01:23;;;;;;;30.83;4.07;;;9.50;99.90;;;;;;5073137;28;20398;-89
2024/01/22 08:03:48;;;;;;;35.08;4.50;;;9.60;99.90;;;;;;5071455;28;20404;-93
2024/01/22 08:06:14;;;;;;;37.17;4.50;;;9.60;99.90;;;;;;5071235;28;20434;-94
2024/01/22 08:08:41;;;;;;;32.55;3.97;;;9.50;99.90;;;;;;5072140;28;20409;-92
2024/01/22 08:11:06;;;;;;;37.45;4.82;;;9.50;99.90;;;;;;5088045;28;20474;-91
2024/01/22 08:13:32;;;;;;;35.63;4.53;;;9.50;99.90;;;;;;5072365;28;21068;-94
2024/01/22 08:16:03;;;;;;;38.13;4.82;;;9.40;99.90;;;;;;5071131;28;20442;-95
2024/01/22 08:18:29;;;;;;;41.25;5.28;;;9.40;99.90;;;;;;5069113;28;20398;-94
2024/01/22 08:20:55;;;;;;;45.87;6.13;;;9.40;99.90;;;;;;5071896;28;20421;-93
2024/01/22 08:23:21;;;;;;;51.72;7.57;;;9.30;99.90;;;;;;5072857;28;20433;-96
2024/01/22 08:25:46;;;;;;;61.33;7.72;;;9.30;99.90;;;;;;5071440;28;20426;-96
2024/01/22 08:28:12;;;;;;;60.73;8.00;;;9.30;99.90;;;;;;5071756;28;20402;-94
2024/01/22 08:30:40;;;;;;;54.77;7.90;;;9.20;99.90;;;;;;5075033;28;20421;-94
2024/01/22 08:33:06;;;;;;;53.03;7.95;;;9.30;99.90;;;;;;5072265;28;20406;-94
2024/01/22 08:35:32;;;;;;;47.47;7.60;;;9.40;99.90;;;;;;5072420;28;20436;-93
2024/01/22 08:37:58;;;;;;;43.40;6.75;;;9.30;99.90;;;;;;5073236;28;20511;-93
2024/01/22 08:40:23;;;;;;;50.20;7.85;;;9.40;99.90;;;;;;5072203;28;20438;-92
2024/01/22 08:42:53;;;;;;;54.10;7.33;;;9.20;99.90;;;;;;5073420;28;20500;-95
2024/01/22 08:45:21;;;;;;;53.67;7.75;;;9.10;99.90;;;;;;5071122;28;20429;-95
2024/01/22 08:47:48;;;;;;;56.10;8.48;;;9.20;99.90;;;;;;5071309;28;20405;-94
2024/01/22 08:50:18;;;;;;;62.55;9.38;;;9.20;99.90;;;;;;5070500;28;20406;-93
2024/01/22 08:52:49;;;;;;;68.43;10.18;;;9.10;99.90;;;;;;5070837;28;20436;-96
2024/01/22 08:55:15;;;;;;;68.22;10.40;;;9.20;99.90;;;;;;5069962;28;20405;-95
2024/01/22 08:57:45;;;;;;;73.30;10.23;;;9.00;99.90;;;;;;5070654;28;20830;-93
2024/01/22 09:00:11;;;;;;;66.38;10.00;;;8.80;99.90;;;;;;5070492;28;20486;-92
2024/01/22 09:02:42;;;;;;;75.97;12.02;;;9.10;99.90;;;;;;5088113;28;20412;-92
2024/01/22 09:05:10;;;;;;;71.97;11.13;;;9.30;99.90;;;;;;5070621;28;21017;-93
2024/01/22 09:07:36;;;;;;;72.88;12.18;;;9.10;99.90;;;;;;5069725;28;20403;-93
2024/01/22 09:10:09;;;;;;;67.55;10.95;;;9.20;99.90;;;;;;5070704;28;20398;-93
2024/01/22 09:12:36;;;;;;;73.00;10.27;;;9.20;99.90;;;;;;5070200;28;20414;-92
2024/01/22 09:15:05;;;;;;;77.22;11.73;;;9.30;99.90;;;;;;5070383;28;20409;-91
2024/01/22 09:17:36;;;;;;;73.43;11.85;;;9.10;99.90;;;;;;5071490;28;20409;-94
2024/01/22 09:20:01;;;;;;;72.22;11.05;;;9.20;99.90;;;;;;5070076;28;20414;-91
2024/01/22 09:22:28;;;;;;;68.68;10.82;;;9.10;99.90;;;;;;5070628;28;20438;-90
2024/01/22 09:24:54;;;;;;;62.75;10.50;;;9.10;99.90;;;;;;5069719;28;20470;-93
2024/01/22 09:27:20;;;;;;;69.55;10.90;;;9.10;99.90;;;;;;5086685;28;20754;-91
2024/01/22 09:29:46;;;;;;;58.65;9.85;;;9.20;99.90;;;;;;5069647;28;20463;-90
2024/01/22 09:32:12;;;;;;;57.30;10.07;;;9.30;99.90;;;;;;5070260;28;20776;-91
2024/01/22 09:34:38;;;;;;;53.13;8.95;;;9.20;99.90;;;;;;5069751;28;20390;-90
2024/01/22 09:37:07;;;;;;;53.20;8.50;;;9.30;99.90;;;;;;5070049;28;20401;-94
2024/01/22 09:39:33;;;;;;;53.53;9.02;;;9.20;99.90;;;;;;5069889;28;20394;-89
2024/01/22 09:41:59;;;;;;;47.33;8.13;;;9.20;99.90;;;;;;5069998;28;20477;-90
2024/01/22 09:44:26;;;;;;;52.55;9.10;;;9.20;99.90;;;;;;5069788;28;20429;-90
2024/01/22 09:46:52;;;;;;;49.22;9.25;;;9.30;99.90;;;;;;5069818;28;20452;-90
2024/01/22 09:49:18;;;;;;;51.38;8.60;;;9.30;99.90;;;;;;5070545;28;20406;-93
2024/01/22 09:51:45;;;;;;;49.65;8.35;;;9.40;99.90;;;;;;5069374;28;20531;-95
2024/01/22 09:54:12;;;;;;;44.43;7.83;;;9.30;99.90;;;;;;5070250;28;20502;-90
2024/01/22 09:56:39;;;;;;;45.38;7.25;;;9.50;99.90;;;;;;5069859;28;20420;-94
2024/01/22 09:59:17;;;;;;;38.43;6.37;;;9.70;99.90;;;;;;5068649;28;20398;-92
2024/01/22 10:01:43;;;;;;;36.63;6.40;;;9.90;99.90;;;;;;5070434;28;20477;-92
2024/01/22 10:04:13;;;;;;;36.60;6.67;;;10.00;99.90;;;;;;5071033;28;20976;-93
2024/01/22 10:06:40;;;;;;;35.40;7.40;;;10.20;99.90;;;;;;5069527;28;20394;-89
2024/01/22 10:09:06;;;;;;;31.25;6.03;;;10.40;99.90;;;;;;5069667;28;20413;-91
2024/01/22 10:11:39;;;;;;;28.50;5.18;;;10.60;99.90;;;;;;5070431;28;20769;-94
2024/01/22 10:14:08;;;;;;;31.40;5.75;;;10.60;99.90;;;;;;5070211;28;20769;-91
2024/01/22 10:16:33;;;;;;;29.15;5.68;;;10.70;99.90;;;;;;5070374;28;20422;-91
2024/01/22 10:19:05;;;;;;;29.55;5.50;;;10.80;99.90;;;;;;5069508;28;20402;-87
2024/01/22 10:21:31;;;;;;;25.77;5.20;;;10.90;99.90;;;;;;5069660;28;20412;-91
2024/01/22 10:24:11;;;;;;;27.67;5.40;;;11.00;99.90;;;;;;5071254;28;20785;-91
2024/01/22 10:26:40;;;;;;;24.15;5.00;;;11.00;99.90;;;;;;5087571;28;20464;-92
2024/01/22 10:29:22;;;;;;;24.73;4.43;;;11.00;99.90;;;;;;5055469;28;20394;-93
2024/01/22 10:32:03;;;;;;;24.60;4.03;;;11.20;99.90;;;;;;5072043;28;20479;-89
2024/01/22 10:34:52;;;;;;;22.73;3.85;;;11.10;99.90;;;;;;5083164;28;20947;-90
2024/01/22 10:37:18;;;;;;;22.53;3.97;;;11.10;99.90;;;;;;5073668;28;20781;-92
2024/01/22 10:39:45;;;;;;;18.43;3.60;;;11.30;99.90;;;;;;5071944;28;20401;-87
2024/01/22 10:42:13;;;;;;;23.10;3.97;;;11.30;99.90;;;;;;5073332;28;20402;-91
2024/01/22 10:44:41;;;;;;;23.27;3.67;;;11.20;99.90;;;;;;5072817;28;20860;-88
2024/01/22 10:47:09;;;;;;;25.33;4.50;;;11.40;99.90;;;;;;5072886;28;20408;-91
2024/01/22 10:49:35;;;;;;;24.42;3.95;;;11.50;99.90;;;;;;5072626;28;20409;-90
2024/01/22 10:52:02;;;;;;;22.17;4.20;;;11.50;99.90;;;;;;5072397;28;20448;-91
2024/01/22 10:54:29;;;;;;;26.70;4.87;;;11.50;99.90;;;;;;5073925;28;20402;-90
2024/01/22 10:57:08;;;;;;;25.02;4.40;;;11.70;99.90;;;;;;5071969;28;20398;-89
2024/01/22 10:59:39;;;;;;;23.25;4.10;;;11.50;99.90;;;;;;5071672;28;20485;-89
2024/01/22 11:02:21;;;;;;;24.75;4.72;;;11.60;99.90;;;;;;5073021;28;20441;-91
2024/01/22 11:04:54;;;;;;;23.50;3.92;;;11.70;99.90;;;;;;5072109;28;20954;-91
2024/01/22 11:07:27;;;;;;;20.20;3.55;;;11.80;99.90;;;;;;5090855;28;20437;-93
2024/01/22 11:09:55;;;;;;;17.42;3.28;;;11.80;99.90;;;;;;5074028;28;20429;-89
2024/01/22 11:12:22;;;;;;;19.02;3.97;;;11.80;99.90;;;;;;5075266;28;20520;-93
2024/01/22 11:14:48;;;;;;;20.75;3.60;;;11.60;99.90;;;;;;5074118;28;20406;-94
2024/01/22 11:17:15;;;;;;;18.05;3.47;;;11.70;99.90;;;;;;5058697;28;20475;-91
2024/01/22 11:19:43;;;;;;;17.90;3.20;;;11.80;99.90;;;;;;5072118;28;20410;-91
2024/01/22 11:22:29;;;;;;;19.92;3.35;;;12.00;99.90;;;;;;5073113;28;20398;-88
2024/01/22 11:25:06;;;;;;;19.17;3.25;;;11.90;99.90;;;;;;5071919;28;20433;-89
2024/01/22 11:27:45;;;;;;;20.50;3.50;;;12.00;99.90;;;;;;5072302;28;20478;-88
2024/01/22 11:30:20;;;;;;;21.30;3.40;;;12.10;99.90;;;;;;5074504;28;20410;-90
2024/01/22 11:32:45;;;;;;;20.17;3.72;;;11.80;99.90;;;;;;5074340;28;20916;-89
2024/01/22 11:35:11;;;;;;;21.07;3.93;;;12.00;99.90;;;;;;5073072;28;20409;-89
2024/01/22 11:37:37;;;;;;;21.17;4.03;;;12.10;99.90;;;;;;5073187;28;20485;-95
2024/01/22 11:40:11;;;;;;;24.13;4.65;;;11.90;99.90;;;;;;5090821;28;20897;-91
2024/01/22 11:42:36;;;;;;;18.67;3.00;;;11.70;99.90;;;;;;5074059;28;20410;-92
2024/01/22 11:45:10;;;;;;;19.42;3.53;;;11.90;99.90;;;;;;5074401;28;20785;-93
2024/01/22 11:47:38;;;;;;;19.90;3.35;;;11.70;99.90;;;;;;5075388;28;20772;-91
2024/01/22 11:50:06;;;;;;;22.85;3.78;;;11.90;99.90;;;;;;5088900;28;20406;-91
2024/01/22 11:52:33;;;;;;;17.27;3.40;;;11.50;99.90;;;;;;5072328;28;20901;-93
2024/01/22 11:55:04;;;;;;;20.65;3.40;;;11.40;99.90;;;;;;5088594;28;20768;-94
2024/01/22 11:57:31;;;;;;;20.87;3.57;;;11.60;99.90;;;;;;5073445;28;20417;-90
2024/01/22 12:00:05;;;;;;;17.80;3.13;;;11.60;99.90;;;;;;5072017;28;20840;-93
2024/01/22 12:02:34;;;;;;;16.30;3.57;;;11.80;99.90;;;;;;5089229;28;20402;-96
2024/01/22 12:05:17;;;;;;;20.48;3.33;;;12.20;99.90;;;;;;5056792;28;20410;-92
2024/01/22 12:07:47;;;;;;;22.40;3.85;;;12.30;99.90;;;;;;5071259;28;20406;-93
2024/01/22 12:10:29;;;;;;;18.95;3.15;;;12.50;99.90;;;;;;5070996;28;20881;-91
2024/01/22 12:13:04;;;;;;;16.88;3.58;;;12.70;99.90;;;;;;5072544;28;20406;-95
2024/01/22 12:15:32;;;;;;;19.92;3.55;;;12.90;99.90;;;;;;5089865;28;20410;-91
2024/01/22 12:17:59;;;;;;;15.55;3.25;;;13.10;99.90;;;;;;5056380;28;20403;-88
2024/01/22 12:20:26;;;;;;;15.80;2.88;;;13.10;99.90;;;;;;5089949;28;20467;-88
2024/01/22 12:23:06;;;;;;;20.08;3.60;;;13.20;99.90;;;;;;5072515;28;20394;-95
2024/01/22 12:25:40;;;;;;;18.40;3.38;;;13.00;99.90;;;;;;5091298;28;20426;-93
2024/01/22 12:28:11;;;;;;;19.92;3.45;;;13.00;99.90;;;;;;5074387;28;20413;-92
2024/01/22 12:30:43;;;;;;;20.70;3.33;;;12.70;99.90;;;;;;5089795;28;20757;-93
2024/01/22 12:33:20;;;;;;;17.40;3.22;;;12.50;99.90;;;;;;5073227;28;20442;-92
2024/01/22 12:35:46;;;;;;;18.10;3.42;;;12.30;99.90;;;;;;5072883;28;20497;-93
2024/01/22 12:38:12;;;;;;;18.42;3.50;;;12.10;99.90;;;;;;5072700;28;20863;-93
2024/01/22 12:40:40;;;;;;;18.92;3.85;;;12.10;99.90;;;;;;5072350;28;20402;-95
2024/01/22 12:43:07;;;;;;;20.85;3.38;;;11.90;99.90;;;;;;5056086;28;20398;-90
2024/01/22 12:45:32;;;;;;;20.23;3.88;;;11.90;99.90;;;;;;5072066;28;20500;-89